createdAt,value
2022-10-04T00:54:33.284Z,96444.44
2022-10-04T00:58:24.443Z,96443.44
2022-10-04T01:02:12.275Z,96438.45
2022-10-04T01:06:18.898Z,96435.73
2022-10-04T01:10:11.878Z,96439.19
2022-10-04T01:14:15.692Z,96445.36
2022-10-04T01:18:01.981Z,96452.08
2022-10-04T01:22:00.326Z,96451.84
2022-10-04T01:25:53.833Z,96448.92
2022-10-04T02:31:20.089Z,96454.65
2022-10-04T02:35:05.618Z,96454.88
2022-10-04T02:39:08.433Z,96464.63
2022-10-04T02:43:04.159Z,96475.83
2022-10-04T02:47:15.759Z,96476.84
2022-10-04T02:51:12.682Z,96478.75
2022-10-04T02:55:08.286Z,96482.09
2022-10-04T02:58:52.962Z,96488.39
2022-10-04T03:02:45.000Z,96484.41
2022-10-04T03:06:45.550Z,96490.16
2022-10-04T03:30:00.983Z,96481.20
2022-10-04T03:33:53.499Z,96479.38
2022-10-04T03:49:37.590Z,96495.61
2022-10-04T03:53:33.540Z,96494.35
2022-10-04T03:57:32.964Z,96491.06
2022-10-04T04:01:26.384Z,96495.85
2022-10-04T04:09:21.036Z,96496.77
2022-10-04T04:13:21.762Z,96492.34
2022-10-04T04:17:14.217Z,96493.11
2022-10-04T04:21:07.475Z,96494.29
2022-10-04T04:48:50.558Z,96525.30
2022-10-04T04:52:43.925Z,96524.75
2022-10-04T04:56:41.553Z,96525.96
2022-10-04T05:08:53.067Z,96538.25
2022-10-04T05:13:03.531Z,96540.27
2022-10-04T05:16:55.879Z,96543.45
2022-10-04T05:20:41.223Z,96544.46
2022-10-04T06:06:59.095Z,96588.56
2022-10-04T06:22:44.479Z,96604.21
2022-10-04T06:26:36.742Z,96612.37
2022-10-04T06:30:30.834Z,96613.40
2022-10-04T06:34:43.574Z,96623.97
2022-10-04T06:38:52.321Z,96636.54
2022-10-04T06:43:09.491Z,96637.40
2022-10-04T06:47:06.935Z,96644.94
2022-10-04T06:51:02.000Z,96646.52
2022-10-04T06:55:09.490Z,96654.23
2022-10-04T06:59:00.064Z,96655.91
2022-10-04T07:02:58.537Z,96660.23
2022-10-04T07:06:50.621Z,96663.45
2022-10-04T07:10:45.630Z,96664.33
2022-10-04T07:14:39.260Z,96669.32
2022-10-04T07:18:31.593Z,96673.52
2022-10-04T07:22:24.535Z,96677.26
2022-10-04T07:26:27.037Z,96676.45
2022-10-04T08:09:26.307Z,96714.39
2022-10-04T08:13:33.803Z,96712.83
2022-10-04T08:17:27.726Z,96710.40
2022-10-04T08:21:39.246Z,96712.69
2022-10-04T08:25:40.042Z,96714.90
2022-10-04T08:29:41.638Z,96717.61
2022-10-04T08:33:55.234Z,96722.94
2022-10-04T08:38:10.657Z,96725.92
2022-10-04T08:41:58.699Z,96725.05
2022-10-04T08:45:53.878Z,96724.45
2022-10-04T08:49:47.725Z,96737.09
2022-10-04T08:53:40.957Z,96738.72
2022-10-04T08:57:32.079Z,96744.26
2022-10-04T09:01:35.972Z,96758.55
2022-10-04T09:05:52.983Z,96758.38
2022-10-04T09:10:14.840Z,96762.88
2022-10-04T09:14:05.895Z,96763.41
2022-10-04T09:18:02.071Z,96767.66
2022-10-04T09:21:58.558Z,96771.09
2022-10-04T09:26:03.450Z,96772.98
2022-10-04T09:30:04.090Z,96772.98
2022-10-04T09:34:04.916Z,96775.44
2022-10-04T09:37:59.148Z,96774.09
2022-10-04T09:42:26.183Z,96771.79
2022-10-04T09:46:18.323Z,96767.08
2022-10-04T09:50:13.222Z,96761.32
2022-10-04T09:54:19.459Z,96758.71
2022-10-04T09:58:12.545Z,96758.17
2022-10-04T10:02:05.093Z,96766.85
2022-10-04T10:06:10.448Z,96769.36
2022-10-04T10:10:12.560Z,96770.66
2022-10-04T10:14:14.135Z,96765.40
2022-10-04T10:18:31.440Z,96764.33
2022-10-04T10:22:26.879Z,96768.70
2022-10-04T10:26:26.689Z,96773.00
2022-10-04T10:30:28.998Z,96775.19
2022-10-04T10:34:19.755Z,96776.19
2022-10-04T10:38:10.205Z,96775.89
2022-10-04T10:42:01.648Z,96779.55
2022-10-04T10:46:12.081Z,96776.00
2022-10-04T10:50:17.138Z,96778.52
2022-10-04T10:54:07.772Z,96777.10
2022-10-04T10:58:12.723Z,96780.29
2022-10-04T11:02:06.600Z,96780.89
2022-10-04T11:06:08.089Z,96783.27
2022-10-04T11:09:51.538Z,96785.55
2022-10-04T11:13:46.477Z,96781.88
2022-10-04T11:17:38.285Z,96786.81
2022-10-04T11:21:27.243Z,96792.38
2022-10-04T11:25:30.400Z,96795.02
2022-10-04T11:29:42.357Z,96796.08
2022-10-04T11:33:27.969Z,96799.46
2022-10-04T11:37:47.592Z,96800.27
2022-10-04T11:41:51.790Z,96802.02
2022-10-04T11:45:45.281Z,96800.16
2022-10-04T11:50:08.284Z,96805.92
2022-10-04T11:53:59.778Z,96807.78
2022-10-04T11:58:11.775Z,96811.70
2022-10-04T12:02:06.011Z,96812.15
2022-10-04T12:06:12.258Z,96815.85
2022-10-04T12:10:15.534Z,96819.16
2022-10-04T12:14:05.984Z,96819.55
2022-10-04T12:18:19.399Z,96824.90
2022-10-04T12:22:36.347Z,96826.45
2022-10-04T12:26:06.059Z,96820.80
2022-10-04T12:29:54.210Z,96825.89
2022-10-04T12:33:58.235Z,96824.29
2022-10-04T12:37:55.817Z,96817.98
2022-10-04T12:41:51.060Z,96818.02
2022-10-04T12:45:58.151Z,96816.61
2022-10-04T12:49:55.777Z,96813.58
2022-10-04T12:53:48.900Z,96813.15
2022-10-04T12:57:39.920Z,96819.58
2022-10-04T13:01:33.015Z,96819.36
2022-10-04T13:05:28.078Z,96815.69
2022-10-04T13:09:39.461Z,96812.69
2022-10-04T13:13:37.270Z,96818.94
2022-10-04T13:17:46.565Z,96820.05
2022-10-04T13:21:45.021Z,96815.33
2022-10-04T13:25:32.733Z,96818.17
2022-10-04T13:29:31.344Z,96823.50
2022-10-04T13:33:23.855Z,96832.42
2022-10-04T13:37:14.143Z,96843.42
2022-10-04T13:41:21.985Z,96843.63
2022-10-04T13:45:12.004Z,96847.89
2022-10-04T13:49:14.118Z,96850.25
2022-10-04T13:53:07.308Z,96855.11
2022-10-04T13:57:04.947Z,96860.80
2022-10-04T14:00:57.244Z,96871.27
2022-10-04T14:04:55.290Z,96870.13
2022-10-04T14:08:59.028Z,96872.36
2022-10-04T14:13:14.731Z,96874.52
2022-10-04T14:17:07.643Z,96872.67
2022-10-04T14:21:23.780Z,96868.99
2022-10-04T14:25:18.847Z,96873.11
2022-10-04T14:28:52.708Z,96878.55
2022-10-04T14:33:08.753Z,96889.31
2022-10-04T14:37:08.335Z,96888.79
2022-10-04T14:41:01.723Z,96891.20
2022-10-04T14:45:17.710Z,96901.55
2022-10-04T14:49:20.148Z,96903.90
2022-10-04T14:53:21.942Z,96910.80
2022-10-04T14:57:18.411Z,96914.48
2022-10-04T15:01:11.407Z,96917.99
2022-10-04T15:05:10.104Z,96920.20
2022-10-04T15:09:03.859Z,96921.61
2022-10-04T15:13:11.016Z,96923.17
2022-10-04T15:17:20.849Z,96927.23
2022-10-04T15:21:41.538Z,96938.66
2022-10-04T15:25:41.676Z,96934.06
2022-10-04T15:29:41.736Z,96944.38
2022-10-04T15:33:41.938Z,96953.79
2022-10-04T15:37:42.926Z,96955.08
2022-10-04T15:41:39.540Z,96955.71
2022-10-04T15:45:50.030Z,96960.64
2022-10-04T15:49:41.848Z,96968.95
2022-10-04T15:53:51.425Z,96975.73
2022-10-04T15:57:52.792Z,96980.91
2022-10-04T16:02:06.048Z,96978.92
2022-10-04T16:06:03.410Z,96983.68
2022-10-04T16:10:19.425Z,96988.33
2022-10-04T16:14:13.777Z,97001.08
2022-10-04T16:18:17.593Z,97007.27
2022-10-04T16:22:18.529Z,97019.86
2022-10-04T16:26:28.444Z,97027.38
2022-10-04T16:30:26.700Z,97035.27
2022-10-04T16:34:26.899Z,97036.84
2022-10-04T16:38:22.759Z,97041.62
2022-10-04T16:42:18.248Z,97048.60
2022-10-04T16:46:10.156Z,97051.17
2022-10-04T16:50:04.330Z,97059.23
2022-10-04T16:53:54.172Z,97065.04
2022-10-04T16:57:55.895Z,97069.70
2022-10-04T17:02:06.448Z,97065.58
2022-10-04T17:06:10.201Z,97072.94
2022-10-04T17:10:15.569Z,97076.44
2022-10-04T17:14:13.054Z,97085.78
2022-10-04T17:18:23.903Z,97080.38
2022-10-04T17:22:39.157Z,97086.88
2022-10-04T17:26:37.979Z,97094.30
2022-10-04T17:30:47.945Z,97086.56
2022-10-04T17:34:46.597Z,97095.04
2022-10-04T17:38:50.963Z,97102.59
2022-10-04T17:42:46.343Z,97113.55
2022-10-04T17:46:41.457Z,97115.67
2022-10-04T17:50:41.063Z,97121.61
2022-10-04T17:54:31.878Z,97130.89
2022-10-04T17:58:30.786Z,97141.96
2022-10-04T18:02:53.734Z,97144.44
2022-10-04T18:06:45.734Z,97150.98
2022-10-04T18:10:31.609Z,97153.53
2022-10-04T18:14:38.032Z,97162.38
2022-10-04T18:18:32.262Z,97161.49
2022-10-04T18:22:32.934Z,97164.42
2022-10-04T18:26:24.222Z,97163.63
2022-10-04T18:30:21.079Z,97167.02
2022-10-04T18:34:16.839Z,97172.75
2022-10-04T18:38:20.710Z,97178.56
2022-10-04T18:42:27.039Z,97180.90
2022-10-04T18:46:22.345Z,97185.13
2022-10-04T19:30:08.674Z,97233.02
2022-10-04T19:34:01.647Z,97231.19
2022-10-04T19:37:56.727Z,97229.66
2022-10-04T19:41:58.493Z,97228.33
2022-10-04T19:45:57.144Z,97237.02
2022-10-04T19:50:04.394Z,97243.59
2022-10-04T19:54:02.894Z,97242.60
2022-10-04T19:57:54.974Z,97241.88
2022-10-04T20:01:53.503Z,97241.20
2022-10-04T20:05:48.537Z,97240.72
2022-10-04T20:09:44.607Z,97248.51
2022-10-04T20:13:37.687Z,97252.15
2022-10-04T21:03:46.337Z,97313.92
2022-10-04T21:07:41.092Z,97317.60
2022-10-04T21:11:45.165Z,97317.23
2022-10-04T21:15:34.939Z,97318.06
2022-10-04T21:19:27.185Z,97326.46
2022-10-04T21:23:20.282Z,97326.73
2022-10-04T21:27:16.342Z,97328.40
2022-10-04T21:31:12.613Z,97327.95
2022-10-04T21:35:05.105Z,97335.38
2022-10-04T21:38:59.259Z,97331.43
2022-10-04T21:42:52.516Z,97335.83
2022-10-04T22:02:24.228Z,97346.32
2022-10-04T22:06:16.414Z,97348.22
2022-10-04T22:10:08.674Z,97347.08
2022-10-04T22:14:02.931Z,97352.17
2022-10-04T23:35:23.701Z,97411.29
2022-10-04T23:39:16.727Z,97408.73
2022-10-04T23:43:15.738Z,97410.33
2022-10-04T23:47:08.583Z,97411.27
2022-10-04T23:55:00.979Z,97417.21
2022-10-04T23:58:53.653Z,97421.25
